Portada
METAR-TAF:

METAR-TAF

Aeroports :

Jersey,

latitud: 49-13N, longitud: 002-12W, altitud: 84 m

Observació

L'informe es va fer fa 17 minuts, a les 19:50 UTC
Vent 15 kt del Est
Temperatura 16°C
Humitat 55%
Pressió 1021 hPa
Visibilitat 10 km o més

METAR: EGJJ 291950Z AUTO 08015KT 9999 NCD 16/07 Q1021

Hora: 21:07 (20:07 UTC)

Pronòstic

L'informe es va fer fa 3 hores i 8 minuts, a les 16:59 UTC
Pronòstic vàlid del 29 a les 18 UTC al 30 a les 03 UTC
Vent 14 kt del Est
Visibilitat 10 km o més
sense núvols per sota de 1500 mi sense presència de cumulonimbus.

TAF: EGJJ 291659Z 2918/3003 08014KT CAVOK

Observacions i pronòstics meteorològics de més de 4000 aeroports (METAR i TAF).

Les estacions disponibles són els punts grocs i vermells al mapa.

Posi el ratolí al punt desitjat per veure el nom de l'estació.

Feu clic per veure les observacions i els pronòstics meteorològics.

Per canviar el mapa: feu clic els botons verds amb una creu de color negre per apropar; al botó verd amb un guió per allunyar la imatge; o en les fletxes verdes per a mapes adjacents.


METAR-TAF: